createdAt,value
2019-05-02T00:00:59.952Z,8.29
2019-05-02T00:01:59.817Z,8.26
2019-05-02T00:02:59.944Z,8.28
2019-05-02T00:03:59.794Z,8.22
2019-05-02T00:04:59.794Z,8.26
2019-05-02T00:06:03.029Z,8.26
2019-05-02T00:07:00.764Z,8.26
2019-05-02T00:07:59.752Z,8.21
2019-05-02T00:09:03.923Z,8.26
2019-05-02T00:10:00.734Z,8.25
2019-05-02T00:10:59.763Z,8.21
2019-05-02T00:11:59.731Z,8.26
2019-05-02T00:12:59.703Z,8.28
2019-05-02T00:13:59.689Z,8.22
2019-05-02T00:15:01.827Z,8.14
2019-05-02T00:15:59.669Z,8.15
2019-05-02T00:16:59.679Z,8.12
2019-05-02T00:18:01.474Z,8.12
2019-05-02T00:18:59.637Z,8.14
2019-05-02T00:19:59.629Z,8.15
2019-05-02T00:21:01.413Z,8.12
2019-05-02T00:21:59.626Z,8.17
2019-05-02T00:22:59.595Z,8.14
2019-05-02T00:24:02.968Z,8.14
2019-05-02T00:24:59.575Z,8.14
2019-05-02T00:25:59.562Z,8.12
2019-05-02T00:27:01.353Z,8.14
2019-05-02T00:27:59.545Z,8.12
2019-05-02T00:28:59.532Z,8.11
2019-05-02T00:30:00.407Z,8.08
2019-05-02T00:30:59.511Z,8.18
2019-05-02T00:31:59.519Z,8.04
2019-05-02T00:32:59.624Z,8.04
2019-05-02T00:33:59.480Z,8.03
2019-05-02T00:34:59.471Z,8.03
2019-05-02T00:35:59.475Z,7.97
2019-05-02T00:36:59.468Z,7.99
2019-05-02T00:38:02.528Z,8.02
2019-05-02T00:38:59.427Z,8.02
2019-05-02T00:39:59.416Z,7.99
2019-05-02T00:41:02.163Z,7.97
2019-05-02T00:42:12.059Z,7.96
2019-05-02T00:43:00.384Z,7.85
2019-05-02T00:43:59.374Z,7.90
2019-05-02T00:44:59.372Z,7.89
2019-05-02T00:45:59.743Z,7.85
2019-05-02T00:46:59.362Z,7.84
2019-05-02T00:47:59.331Z,7.81
2019-05-02T00:48:59.969Z,7.71
2019-05-02T00:49:59.314Z,7.72
2019-05-02T00:50:59.304Z,7.72
2019-05-02T00:52:01.368Z,7.71
2019-05-02T00:52:59.278Z,7.71
2019-05-02T00:53:59.276Z,7.71
2019-05-02T00:54:59.884Z,7.72
2019-05-02T00:55:59.248Z,7.74
2019-05-02T00:56:59.256Z,7.75
2019-05-02T00:57:59.225Z,7.75
2019-05-02T00:59:02.404Z,7.72
2019-05-02T01:00:00.207Z,7.74
2019-05-02T01:00:59.195Z,7.77
2019-05-02T01:02:00.084Z,7.74
2019-05-02T01:03:00.182Z,7.71
2019-05-02T01:03:59.163Z,7.77
2019-05-02T01:05:03.152Z,7.72
2019-05-02T01:05:59.143Z,7.72
2019-05-02T01:06:59.151Z,7.71
2019-05-02T01:08:01.119Z,7.67
2019-05-02T01:08:59.110Z,7.69
2019-05-02T01:09:59.102Z,7.72
2019-05-02T01:10:59.089Z,7.69
2019-05-02T01:12:03.079Z,7.69
2019-05-02T01:13:00.067Z,7.66
2019-05-02T01:13:59.060Z,7.75
2019-05-02T01:15:03.228Z,7.69
2019-05-02T01:16:00.033Z,7.63
2019-05-02T01:16:59.049Z,7.62
2019-05-02T01:18:01.045Z,7.59
2019-05-02T01:19:00.005Z,7.53
2019-05-02T01:19:58.996Z,7.52
2019-05-02T01:21:02.827Z,7.60
2019-05-02T01:21:59.998Z,7.52
2019-05-02T01:22:58.964Z,7.49
2019-05-02T01:24:02.992Z,7.41
2019-05-02T01:24:58.941Z,7.44
2019-05-02T01:25:58.930Z,7.44
2019-05-02T01:26:59.918Z,7.44
2019-05-02T01:27:59.959Z,7.27
2019-05-02T01:28:58.899Z,7.34
2019-05-02T01:30:01.416Z,7.38
2019-05-02T01:30:59.880Z,7.37
2019-05-02T01:31:58.868Z,7.22
2019-05-02T01:33:01.267Z,7.34
2019-05-02T01:33:59.848Z,7.22
2019-05-02T01:34:58.837Z,7.26
2019-05-02T01:36:01.757Z,7.17
2019-05-02T01:36:59.815Z,7.19
2019-05-02T01:37:58.822Z,7.32
2019-05-02T01:39:03.043Z,7.23
2019-05-02T01:39:59.782Z,7.23
2019-05-02T01:40:58.772Z,7.20
2019-05-02T01:41:59.977Z,7.22
2019-05-02T01:42:59.775Z,7.15
2019-05-02T01:44:00.145Z,7.19
2019-05-02T01:44:58.733Z,7.13
2019-05-02T01:45:58.722Z,7.17
2019-05-02T01:46:59.968Z,7.19
2019-05-02T01:47:58.705Z,7.15
2019-05-02T01:48:58.713Z,7.16
2019-05-02T01:49:59.177Z,7.16
2019-05-02T01:50:58.667Z,7.13
2019-05-02T01:51:58.658Z,7.09
2019-05-02T01:53:00.169Z,7.15
2019-05-02T01:54:00.178Z,7.17
2019-05-02T01:54:58.629Z,7.07
2019-05-02T01:55:59.399Z,7.07
2019-05-02T01:56:58.610Z,7.09
2019-05-02T01:57:58.594Z,7.05
2019-05-02T01:58:58.958Z,7.04
2019-05-02T01:59:58.576Z,7.01
2019-05-02T02:00:58.565Z,7.01
2019-05-02T02:01:59.181Z,7.07
2019-05-02T02:02:58.544Z,7.05
2019-05-02T02:04:00.179Z,7.01
2019-05-02T02:04:58.522Z,7.01
2019-05-02T02:05:58.549Z,7.01
2019-05-02T02:06:58.499Z,6.97
2019-05-02T02:07:58.492Z,6.98
2019-05-02T02:08:58.506Z,7.02
2019-05-02T02:09:58.469Z,6.99
2019-05-02T02:10:58.458Z,6.97
2019-05-02T02:11:58.448Z,7.01
2019-05-02T02:13:04.858Z,7.04
2019-05-02T02:14:01.180Z,6.99
2019-05-02T02:14:58.422Z,6.99
2019-05-02T02:16:00.197Z,7.02
2019-05-02T02:16:59.393Z,6.94
2019-05-02T02:17:58.384Z,6.98
2019-05-02T02:18:59.103Z,7.02
2019-05-02T02:19:59.381Z,7.01
2019-05-02T02:20:58.353Z,6.97
2019-05-02T02:22:02.783Z,6.99
2019-05-02T02:22:59.332Z,6.99
2019-05-02T02:23:58.325Z,7.02
2019-05-02T02:25:00.979Z,7.02
2019-05-02T02:25:58.307Z,6.98
2019-05-02T02:26:58.296Z,6.95
2019-05-02T02:27:59.714Z,6.99
2019-05-02T02:28:58.268Z,6.94
2019-05-02T02:29:58.284Z,6.98
2019-05-02T02:31:04.949Z,6.97
2019-05-02T02:31:59.246Z,7.02
2019-05-02T02:33:00.911Z,6.90
2019-05-02T02:33:59.218Z,6.99
2019-05-02T02:35:03.452Z,6.98
2019-05-02T02:35:59.205Z,6.99
2019-05-02T02:36:58.187Z,7.05
2019-05-02T02:37:58.180Z,7.01
2019-05-02T02:38:58.163Z,7.01
2019-05-02T02:39:58.177Z,7.01
2019-05-02T02:40:58.143Z,7.02
2019-05-02T02:41:58.135Z,6.97
2019-05-02T02:42:58.125Z,7.08
2019-05-02T02:44:00.546Z,7.01
2019-05-02T02:44:58.130Z,7.01
2019-05-02T02:45:59.795Z,6.99
2019-05-02T02:46:58.083Z,7.05
2019-05-02T02:47:59.948Z,7.04
2019-05-02T02:48:58.060Z,7.12
2019-05-02T02:50:02.327Z,7.09
2019-05-02T02:50:59.039Z,7.09
2019-05-02T02:52:04.203Z,7.09
2019-05-02T02:52:59.017Z,7.09
2019-05-02T02:54:03.860Z,7.20
2019-05-02T02:54:59.728Z,7.15
2019-05-02T02:56:01.654Z,7.13
2019-05-02T02:56:58.975Z,7.07
2019-05-02T02:57:58.580Z,7.24
2019-05-02T02:58:58.954Z,7.20
2019-05-02T03:00:06.302Z,7.22
2019-05-02T03:00:58.966Z,7.20
2019-05-02T03:02:09.278Z,7.23
2019-05-02T03:02:58.913Z,7.24
2019-05-02T03:04:01.781Z,7.23
2019-05-02T03:04:58.891Z,7.26
2019-05-02T03:05:58.582Z,7.19
2019-05-02T03:06:58.871Z,7.23
2019-05-02T03:07:59.456Z,7.29
2019-05-02T03:08:58.854Z,7.22
2019-05-02T03:09:59.646Z,7.23
2019-05-02T03:10:58.850Z,7.23
2019-05-02T03:12:02.220Z,7.26
2019-05-02T03:12:58.806Z,7.40
2019-05-02T03:14:05.559Z,7.35
2019-05-02T03:14:58.786Z,7.29
2019-05-02T03:16:00.281Z,7.27
2019-05-02T03:16:58.782Z,7.32
2019-05-02T03:17:59.944Z,7.31
2019-05-02T03:18:57.746Z,7.38
2019-05-02T03:20:01.162Z,7.40
2019-05-02T03:20:58.723Z,7.41
2019-05-02T03:22:03.443Z,7.45
2019-05-02T03:22:58.700Z,7.41
2019-05-02T03:24:03.055Z,7.42
2019-05-02T03:24:58.681Z,7.47
2019-05-02T03:25:57.671Z,7.50
2019-05-02T03:26:58.355Z,7.50
2019-05-02T03:27:57.652Z,7.53
2019-05-02T03:29:00.280Z,7.58
2019-05-02T03:29:57.634Z,7.52
2019-05-02T03:30:57.619Z,7.49
2019-05-02T03:32:14.187Z,7.47
2019-05-02T03:33:05.994Z,7.59
2019-05-02T03:34:00.647Z,7.59
2019-05-02T03:34:57.580Z,7.56
2019-05-02T03:35:57.568Z,7.55
2019-05-02T03:37:03.155Z,7.53
2019-05-02T03:37:58.563Z,7.63
2019-05-02T03:38:57.534Z,7.59
2019-05-02T03:40:00.276Z,7.67
2019-05-02T03:40:57.512Z,7.59
2019-05-02T03:42:02.855Z,7.63
2019-05-02T03:42:58.544Z,7.60
2019-05-02T03:44:10.645Z,7.63
2019-05-02T03:45:04.450Z,7.63
2019-05-02T03:45:58.470Z,7.60
2019-05-02T03:47:02.176Z,7.62
2019-05-02T03:47:58.469Z,7.59
2019-05-02T03:49:06.070Z,7.60
2019-05-02T03:49:58.417Z,7.66
2019-05-02T03:50:57.411Z,7.69
2019-05-02T03:52:03.022Z,7.66
2019-05-02T03:52:58.412Z,7.69
2019-05-02T03:54:06.435Z,7.63
2019-05-02T03:54:58.400Z,7.71
2019-05-02T03:55:57.369Z,7.75
2019-05-02T03:56:57.348Z,7.63
2019-05-02T03:57:57.355Z,7.71
2019-05-02T03:58:58.289Z,7.72
2019-05-02T03:59:57.317Z,7.67
2019-05-02T04:01:01.760Z,7.72
2019-05-02T04:01:58.292Z,7.71
2019-05-02T04:03:00.475Z,7.74
2019-05-02T04:03:58.271Z,7.69
2019-05-02T04:05:01.055Z,7.71
2019-05-02T04:05:58.249Z,7.67
2019-05-02T04:07:01.189Z,7.74
2019-05-02T04:07:57.230Z,7.74
2019-05-02T04:09:00.125Z,7.71
2019-05-02T04:09:57.221Z,7.74
2019-05-02T04:10:59.378Z,7.77
2019-05-02T04:11:57.184Z,7.78
2019-05-02T04:12:58.416Z,7.82
2019-05-02T04:13:57.197Z,7.81
2019-05-02T04:14:57.455Z,7.81
2019-05-02T04:15:57.145Z,7.78
2019-05-02T04:16:57.337Z,7.81
2019-05-02T04:17:57.123Z,7.84
2019-05-02T04:18:58.169Z,7.82
2019-05-02T04:19:57.099Z,7.81
2019-05-02T04:20:57.092Z,7.85
2019-05-02T04:22:01.468Z,7.85
2019-05-02T04:22:58.080Z,7.87
2019-05-02T04:24:07.788Z,7.79
2019-05-02T04:24:58.051Z,7.84
2019-05-02T04:25:57.037Z,7.85
2019-05-02T04:26:57.028Z,7.92
2019-05-02T04:27:57.031Z,7.92
2019-05-02T04:28:57.030Z,7.89
2019-05-02T04:29:56.998Z,7.96
2019-05-02T04:30:56.989Z,7.90
2019-05-02T04:31:56.987Z,7.82
2019-05-02T04:32:57.871Z,7.84
2019-05-02T04:33:56.959Z,7.93
2019-05-02T04:34:57.966Z,7.90
2019-05-02T04:35:59.379Z,7.89
2019-05-02T04:37:00.970Z,7.93
2019-05-02T04:38:01.433Z,7.90
2019-05-02T04:38:59.541Z,7.97
2019-05-02T04:40:00.717Z,7.90
2019-05-02T04:40:59.197Z,8.02
2019-05-02T04:41:58.593Z,8.00
2019-05-02T04:43:01.936Z,8.02
2019-05-02T04:44:01.295Z,8.02
2019-05-02T04:45:13.759Z,7.99
2019-05-02T04:46:00.062Z,7.96
2019-05-02T04:47:02.740Z,8.00
2019-05-02T04:48:03.169Z,8.07
2019-05-02T04:48:58.906Z,7.97
2019-05-02T04:49:58.571Z,8.04
2019-05-02T04:50:59.427Z,7.96
2019-05-02T04:52:05.947Z,8.02
2019-05-02T04:52:59.241Z,7.96
2019-05-02T04:53:58.844Z,7.99
2019-05-02T04:55:12.062Z,7.96
2019-05-02T04:56:04.346Z,8.00
2019-05-02T04:57:01.830Z,8.07
2019-05-02T04:57:58.768Z,8.12
2019-05-02T04:59:01.367Z,8.03
2019-05-02T05:00:05.930Z,8.07
2019-05-02T05:01:01.549Z,8.14
2019-05-02T05:01:58.425Z,8.03
2019-05-02T05:02:58.007Z,8.22
2019-05-02T05:04:02.518Z,8.20
2019-05-02T05:04:58.221Z,8.17
2019-05-02T05:06:01.543Z,8.17
2019-05-02T05:07:00.955Z,8.22
2019-05-02T05:07:58.567Z,8.21
2019-05-02T05:08:58.451Z,8.25
2019-05-02T05:10:02.857Z,8.30
2019-05-02T05:10:57.589Z,8.21
2019-05-02T05:11:59.082Z,8.26
2019-05-02T05:12:57.565Z,8.22
2019-05-02T05:13:57.467Z,8.32
2019-05-02T05:14:57.850Z,8.33
2019-05-02T05:15:57.385Z,8.36
2019-05-02T05:16:57.985Z,8.37
2019-05-02T05:17:58.208Z,8.37
2019-05-02T05:18:57.859Z,8.36
2019-05-02T05:19:57.696Z,8.37
2019-05-02T05:20:57.744Z,8.35
2019-05-02T05:22:04.438Z,8.39
2019-05-02T05:22:58.142Z,8.44
2019-05-02T05:24:00.976Z,8.36
2019-05-02T05:24:58.250Z,8.37
2019-05-02T05:26:03.449Z,8.45
2019-05-02T05:26:57.856Z,8.47
2019-05-02T05:27:58.691Z,8.47
2019-05-02T05:28:58.355Z,8.50
2019-05-02T05:29:59.507Z,8.45
2019-05-02T05:30:58.346Z,8.54
2019-05-02T05:32:05.270Z,8.54
2019-05-02T05:32:58.330Z,8.44
2019-05-02T05:33:57.878Z,8.47
2019-05-02T05:34:57.939Z,8.55
2019-05-02T05:35:57.824Z,8.54
2019-05-02T05:36:58.322Z,8.58
2019-05-02T05:37:57.330Z,8.60
2019-05-02T05:38:58.277Z,8.60
2019-05-02T05:39:57.989Z,8.57
2019-05-02T05:40:58.044Z,8.55
2019-05-02T05:41:57.838Z,8.60
2019-05-02T05:42:57.335Z,8.62
2019-05-02T05:43:57.339Z,8.53
2019-05-02T05:44:58.220Z,8.63
2019-05-02T05:46:08.502Z,8.63
2019-05-02T05:46:58.140Z,8.68
2019-05-02T05:47:57.492Z,8.66
2019-05-02T05:48:58.336Z,8.57
2019-05-02T05:49:57.648Z,8.57
2019-05-02T05:50:57.957Z,8.66
2019-05-02T05:52:02.039Z,8.63
2019-05-02T05:52:59.355Z,8.68
2019-05-02T05:53:58.956Z,8.75
2019-05-02T05:54:57.924Z,8.69
2019-05-02T05:55:58.953Z,8.73
2019-05-02T05:56:57.299Z,8.73
2019-05-02T05:58:01.784Z,8.76
2019-05-02T05:58:59.146Z,8.81
2019-05-02T05:59:58.258Z,8.83
2019-05-02T06:00:58.358Z,8.83
2019-05-02T06:01:57.997Z,8.79
2019-05-02T06:03:06.194Z,8.83
2019-05-02T06:03:58.113Z,8.90
2019-05-02T06:05:02.549Z,8.86
2019-05-02T06:05:57.988Z,8.93
2019-05-02T06:07:01.642Z,8.78
2019-05-02T06:07:57.541Z,8.96
2019-05-02T06:08:55.951Z,8.84
2019-05-02T06:09:55.947Z,8.97
2019-05-02T06:10:55.929Z,8.83
2019-05-02T06:11:56.666Z,8.96
2019-05-02T06:12:55.907Z,8.99
2019-05-02T06:13:55.925Z,8.99
2019-05-02T06:14:56.250Z,9.01
2019-05-02T06:16:02.831Z,9.12
2019-05-02T06:16:56.864Z,8.97
2019-05-02T06:17:59.946Z,9.10
2019-05-02T06:18:56.935Z,9.12
2019-05-02T06:19:55.833Z,9.10
2019-05-02T06:20:58.343Z,9.12
2019-05-02T06:21:55.813Z,9.10
2019-05-02T06:23:00.020Z,9.16
2019-05-02T06:23:56.810Z,9.23
2019-05-02T06:24:55.780Z,9.15
2019-05-02T06:25:55.773Z,9.15
2019-05-02T06:26:55.758Z,9.13
2019-05-02T06:28:00.159Z,9.20
2019-05-02T06:28:56.758Z,9.25
2019-05-02T06:29:56.085Z,9.32
2019-05-02T06:30:55.716Z,9.20
2019-05-02T06:31:55.707Z,9.24
2019-05-02T06:32:56.652Z,9.30
2019-05-02T06:33:55.707Z,9.28
2019-05-02T06:34:55.704Z,9.30
2019-05-02T06:36:01.002Z,9.27
2019-05-02T06:36:56.657Z,9.40
2019-05-02T06:37:55.644Z,9.35
2019-05-02T06:38:56.682Z,9.42
2019-05-02T06:39:55.632Z,9.42
2019-05-02T06:40:55.619Z,9.42
2019-05-02T06:41:57.530Z,9.42
2019-05-02T06:42:55.589Z,9.38
2019-05-02T06:43:55.580Z,9.57
2019-05-02T06:44:59.787Z,9.53
2019-05-02T06:45:56.561Z,9.45
2019-05-02T06:46:59.281Z,9.57
2019-05-02T06:47:56.538Z,9.49
2019-05-02T06:48:55.549Z,9.57
2019-05-02T06:49:56.122Z,9.57
2019-05-02T06:50:56.504Z,9.52
2019-05-02T06:51:56.305Z,9.46
2019-05-02T06:52:55.485Z,9.61
2019-05-02T06:53:55.477Z,9.61
2019-05-02T06:54:57.922Z,9.66
2019-05-02T06:55:55.457Z,9.68
2019-05-02T06:56:55.441Z,9.73
2019-05-02T06:57:57.125Z,9.67
2019-05-02T06:58:56.422Z,9.73
2019-05-02T06:59:56.531Z,9.76
2019-05-02T07:00:58.087Z,9.81
2019-05-02T07:01:57.507Z,9.83
2019-05-02T07:02:55.378Z,9.81
2019-05-02T07:03:55.367Z,9.83
2019-05-02T07:04:56.067Z,9.85
2019-05-02T07:05:58.892Z,9.94
2019-05-02T07:06:59.090Z,9.94
2019-05-02T07:07:55.507Z,9.96
2019-05-02T07:08:55.408Z,9.96
2019-05-02T07:09:55.316Z,9.96
2019-05-02T07:10:56.048Z,9.97
2019-05-02T07:11:58.560Z,9.94
2019-05-02T07:13:09.847Z,9.94
2019-05-02T07:13:56.261Z,10.03
2019-05-02T07:14:55.981Z,9.97
2019-05-02T07:15:56.263Z,10.01
2019-05-02T07:16:56.479Z,10.06
2019-05-02T07:17:55.218Z,10.10
2019-05-02T07:18:55.208Z,10.15
2019-05-02T07:19:58.905Z,10.12
2019-05-02T07:20:56.207Z,10.10
2019-05-02T07:21:58.516Z,10.14
2019-05-02T07:22:56.167Z,10.15
2019-05-02T07:23:55.341Z,10.10
2019-05-02T07:24:55.153Z,10.09
2019-05-02T07:25:55.152Z,10.06
2019-05-02T07:26:56.817Z,10.07
2019-05-02T07:27:55.116Z,10.10
2019-05-02T07:28:55.106Z,10.09
2019-05-02T07:29:57.689Z,10.06
2019-05-02T07:30:55.101Z,10.04
2019-05-02T07:31:55.070Z,10.03
2019-05-02T07:32:56.285Z,9.99
2019-05-02T07:33:56.057Z,10.04
2019-05-02T07:34:55.040Z,10.03
2019-05-02T07:35:59.665Z,10.09
2019-05-02T07:36:56.015Z,10.03
2019-05-02T07:37:55.011Z,10.04
2019-05-02T07:38:57.579Z,10.06
2019-05-02T07:39:55.984Z,10.03
2019-05-02T07:40:54.978Z,10.09
2019-05-02T07:41:54.986Z,10.09
2019-05-02T07:42:54.960Z,10.15
2019-05-02T07:43:56.335Z,10.14
2019-05-02T07:44:54.935Z,10.19
2019-05-02T07:45:54.924Z,10.17
2019-05-02T07:46:56.875Z,10.15
2019-05-02T07:47:55.899Z,10.14
2019-05-02T07:48:56.571Z,10.19
2019-05-02T07:49:54.882Z,10.15
2019-05-02T07:50:55.369Z,10.32
2019-05-02T07:51:57.609Z,10.21
2019-05-02T07:52:54.848Z,10.33
2019-05-02T07:53:55.743Z,10.24
2019-05-02T07:54:56.231Z,10.26
2019-05-02T07:55:55.816Z,10.26
2019-05-02T07:56:54.830Z,10.28
2019-05-02T07:57:54.793Z,10.34
2019-05-02T07:58:54.789Z,10.40
2019-05-02T07:59:59.947Z,10.37
2019-05-02T08:00:55.770Z,10.37
2019-05-02T08:01:54.752Z,10.40
2019-05-02T08:02:57.939Z,10.55
2019-05-02T08:03:54.733Z,10.44
2019-05-02T08:04:54.730Z,10.46
2019-05-02T08:05:58.561Z,10.53
2019-05-02T08:06:55.698Z,10.53
2019-05-02T08:07:55.298Z,10.51
2019-05-02T08:08:54.688Z,10.55
2019-05-02T08:09:54.667Z,10.56
2019-05-02T08:11:01.365Z,10.66
2019-05-02T08:11:55.646Z,10.55
2019-05-02T08:12:54.656Z,10.65
2019-05-02T08:13:55.644Z,10.59
2019-05-02T08:14:54.619Z,10.70
2019-05-02T08:15:54.609Z,10.70
2019-05-02T08:17:04.909Z,10.58
2019-05-02T08:17:55.605Z,10.70
2019-05-02T08:18:54.570Z,10.66
2019-05-02T08:19:54.574Z,10.60
2019-05-02T08:20:56.109Z,10.62
2019-05-02T08:21:54.543Z,10.68
2019-05-02T08:22:54.553Z,10.76
2019-05-02T08:23:57.067Z,10.71
2019-05-02T08:24:55.508Z,10.77
2019-05-02T08:25:54.504Z,10.86
2019-05-02T08:26:58.376Z,10.88
2019-05-02T08:27:55.496Z,10.95
2019-05-02T08:28:54.464Z,10.92
2019-05-02T08:29:54.457Z,11.02
2019-05-02T08:30:54.452Z,11.20
2019-05-02T08:31:54.448Z,11.21
2019-05-02T08:32:54.445Z,11.25
2019-05-02T08:33:54.416Z,11.35
2019-05-02T08:34:54.434Z,11.39
2019-05-02T08:35:54.394Z,11.43
2019-05-02T08:36:58.822Z,11.53
2019-05-02T08:37:56.135Z,11.44
2019-05-02T08:38:55.486Z,11.50
2019-05-02T08:39:54.362Z,11.54
2019-05-02T08:40:54.338Z,11.57
2019-05-02T08:41:56.370Z,11.52
2019-05-02T08:42:54.339Z,11.56
2019-05-02T08:43:54.313Z,11.68
2019-05-02T08:44:56.290Z,11.64
2019-05-02T08:45:55.285Z,11.68
2019-05-02T08:46:54.277Z,11.68
2019-05-02T08:47:54.288Z,11.67
2019-05-02T08:48:54.287Z,11.74
2019-05-02T08:49:54.790Z,11.68
2019-05-02T08:50:54.235Z,11.65
2019-05-02T08:51:54.222Z,11.70
2019-05-02T08:52:54.281Z,11.70
2019-05-02T08:53:56.871Z,11.75
2019-05-02T08:54:54.186Z,11.75
2019-05-02T08:55:54.177Z,11.72
2019-05-02T08:56:58.716Z,11.78
2019-05-02T08:57:55.182Z,11.85
2019-05-02T08:58:54.148Z,11.85
2019-05-02T08:59:55.465Z,11.87
2019-05-02T09:00:55.123Z,11.86
2019-05-02T09:01:54.153Z,11.96
2019-05-02T09:02:56.987Z,11.96
2019-05-02T09:03:56.952Z,11.99
2019-05-02T09:04:58.890Z,11.90
2019-05-02T09:06:05.288Z,11.89
2019-05-02T09:06:58.722Z,11.93
2019-05-02T09:07:55.076Z,12.02
2019-05-02T09:08:54.057Z,12.01
2019-05-02T09:09:55.616Z,12.08
2019-05-02T09:10:54.021Z,12.05
2019-05-02T09:12:07.115Z,12.12
2019-05-02T09:12:54.996Z,12.15
2019-05-02T09:13:54.007Z,12.20
2019-05-02T09:14:53.976Z,12.21
2019-05-02T09:15:54.233Z,12.29
2019-05-02T09:16:53.955Z,12.29
2019-05-02T09:17:56.452Z,12.33
2019-05-02T09:18:54.405Z,12.44
2019-05-02T09:20:02.392Z,12.48
2019-05-02T09:20:56.569Z,12.51
2019-05-02T09:21:53.905Z,12.48
2019-05-02T09:22:55.983Z,12.51
2019-05-02T09:23:53.901Z,12.54
2019-05-02T09:24:53.869Z,12.54
2019-05-02T09:25:53.867Z,12.54
2019-05-02T09:26:53.857Z,12.56
2019-05-02T09:27:53.840Z,12.48
2019-05-02T09:28:56.325Z,12.51
2019-05-02T09:29:54.816Z,12.60
2019-05-02T09:30:57.309Z,12.60
2019-05-02T09:31:54.818Z,12.78
2019-05-02T09:32:57.302Z,12.78
2019-05-02T09:33:55.648Z,12.84
2019-05-02T09:34:56.633Z,12.87
2019-05-02T09:35:54.758Z,12.96
2019-05-02T09:36:53.742Z,12.93
2019-05-02T09:37:53.735Z,12.96
2019-05-02T09:38:57.448Z,13.00
2019-05-02T09:39:53.730Z,13.04
2019-05-02T09:40:56.143Z,13.06
2019-05-02T09:41:53.695Z,13.17
2019-05-02T09:43:00.042Z,13.15
2019-05-02T09:43:54.671Z,13.17
2019-05-02T09:44:56.875Z,13.11
2019-05-02T09:45:53.645Z,13.14
2019-05-02T09:46:56.954Z,13.30
2019-05-02T09:48:03.886Z,13.29
2019-05-02T09:48:57.048Z,13.24
2019-05-02T09:49:54.623Z,13.33
2019-05-02T09:50:53.594Z,13.32
2019-05-02T09:51:59.327Z,13.36
2019-05-02T09:52:54.571Z,13.33
2019-05-02T09:53:57.184Z,13.36
2019-05-02T09:54:54.572Z,13.30
2019-05-02T09:55:57.716Z,13.30
2019-05-02T09:56:53.529Z,13.38
2019-05-02T09:57:53.520Z,13.33
2019-05-02T09:58:55.072Z,13.22
2019-05-02T09:59:55.830Z,13.37
2019-05-02T10:00:53.493Z,13.41
2019-05-02T10:01:53.476Z,13.41
2019-05-02T10:02:53.476Z,13.44
2019-05-02T10:03:53.484Z,13.54
2019-05-02T10:04:53.471Z,13.55
2019-05-02T10:05:53.442Z,13.63
2019-05-02T10:06:53.422Z,13.71
2019-05-02T10:07:57.450Z,13.76
2019-05-02T10:08:54.413Z,13.74
2019-05-02T10:09:57.724Z,13.88
2019-05-02T10:10:54.388Z,13.87
2019-05-02T10:11:53.369Z,13.99
2019-05-02T10:12:53.359Z,14.04
2019-05-02T10:13:55.371Z,14.09
2019-05-02T10:14:53.358Z,14.13
2019-05-02T10:15:53.337Z,14.20
2019-05-02T10:16:57.411Z,14.13
2019-05-02T10:18:07.516Z,14.14
2019-05-02T10:18:54.295Z,14.14
2019-05-02T10:19:57.062Z,14.19
2019-05-02T10:20:53.277Z,14.25
2019-05-02T10:21:56.165Z,14.35
2019-05-02T10:22:53.268Z,14.39
2019-05-02T10:23:59.006Z,14.52
2019-05-02T10:24:54.255Z,14.54
2019-05-02T10:25:53.220Z,14.67
2019-05-02T10:26:55.318Z,14.69
2019-05-02T10:27:54.201Z,14.75
2019-05-02T10:28:53.544Z,14.71
2019-05-02T10:29:53.297Z,14.75
2019-05-02T10:30:56.638Z,14.69
2019-05-02T10:31:53.175Z,14.61
2019-05-02T10:32:57.262Z,14.56
2019-05-02T10:33:53.139Z,14.64
2019-05-02T10:34:56.823Z,14.60
2019-05-02T10:35:53.116Z,14.68
2019-05-02T10:36:58.735Z,14.72
2019-05-02T10:37:54.093Z,14.75
2019-05-02T10:38:54.980Z,14.81
2019-05-02T10:39:55.852Z,14.88
2019-05-02T10:40:54.733Z,14.99
2019-05-02T10:41:54.064Z,15.09
2019-05-02T10:42:53.044Z,15.20
2019-05-02T10:43:56.679Z,15.15
2019-05-02T10:44:54.043Z,15.38
2019-05-02T10:45:56.516Z,15.43
2019-05-02T10:46:52.999Z,15.46
2019-05-02T10:47:52.987Z,15.64
2019-05-02T10:48:52.981Z,15.64
2019-05-02T10:49:52.988Z,15.66
2019-05-02T10:50:52.956Z,15.75
2019-05-02T10:51:53.791Z,15.86
2019-05-02T10:52:52.934Z,15.93
2019-05-02T10:53:56.395Z,15.72
2019-05-02T10:54:53.052Z,15.78
2019-05-02T10:55:52.903Z,15.79
2019-05-02T10:56:52.891Z,15.92
2019-05-02T10:57:52.882Z,15.97
2019-05-02T10:58:52.880Z,15.99
2019-05-02T10:59:55.787Z,15.99
2019-05-02T11:00:52.849Z,16.03
2019-05-02T11:01:52.838Z,16.07
2019-05-02T11:02:52.832Z,16.09
2019-05-02T11:03:52.817Z,16.18
2019-05-02T11:04:52.830Z,16.20
2019-05-02T11:05:53.106Z,16.31
2019-05-02T11:06:56.635Z,16.27
2019-05-02T11:07:56.918Z,16.37
2019-05-02T11:08:53.763Z,16.30
2019-05-02T11:09:57.113Z,16.41
2019-05-02T11:10:53.744Z,16.41
2019-05-02T11:11:52.732Z,16.42
2019-05-02T11:12:56.012Z,16.42
2019-05-02T11:14:00.524Z,16.42
2019-05-02T11:14:53.717Z,16.42
2019-05-02T11:15:52.687Z,16.49
2019-05-02T11:16:52.678Z,16.44
2019-05-02T11:17:53.018Z,16.31
2019-05-02T11:18:52.745Z,16.35
2019-05-02T11:19:52.663Z,16.30
2019-05-02T11:20:52.637Z,16.22
2019-05-02T11:21:58.641Z,16.26
2019-05-02T11:22:54.602Z,16.30
2019-05-02T11:23:52.822Z,16.30
2019-05-02T11:24:52.617Z,16.41
2019-05-02T11:25:52.743Z,16.45
2019-05-02T11:26:52.940Z,16.50
2019-05-02T11:27:52.646Z,16.52
2019-05-02T11:28:52.547Z,16.48
2019-05-02T11:29:52.695Z,16.50
2019-05-02T11:30:52.615Z,16.49
2019-05-02T11:31:52.514Z,16.58
2019-05-02T11:32:52.505Z,16.59
2019-05-02T11:33:52.860Z,16.62
2019-05-02T11:34:52.559Z,16.68
2019-05-02T11:35:53.539Z,16.74
2019-05-02T11:36:52.817Z,16.71
2019-05-02T11:37:52.450Z,16.77
2019-05-02T11:39:00.257Z,16.85
2019-05-02T11:39:59.418Z,16.85
2019-05-02T11:40:53.437Z,16.75
2019-05-02T11:41:52.801Z,16.74
2019-05-02T11:42:52.401Z,16.80
2019-05-02T11:43:55.670Z,16.88
2019-05-02T11:44:52.446Z,16.75
2019-05-02T11:45:55.821Z,16.63
2019-05-02T11:46:53.353Z,16.74
2019-05-02T11:47:55.810Z,16.68
2019-05-02T11:48:56.428Z,16.78
2019-05-02T11:49:55.844Z,16.77
2019-05-02T11:50:52.475Z,16.75
2019-05-02T11:51:56.893Z,16.80
2019-05-02T11:52:52.479Z,16.83
2019-05-02T11:53:52.789Z,16.90
2019-05-02T11:54:52.269Z,16.83
2019-05-02T11:55:53.166Z,16.75
2019-05-02T11:56:53.550Z,16.67
2019-05-02T11:57:52.418Z,16.65
2019-05-02T11:58:52.813Z,16.71
2019-05-02T11:59:52.222Z,16.75
2019-05-02T12:00:52.465Z,16.74
2019-05-02T12:01:59.796Z,16.71
2019-05-02T12:02:56.690Z,16.73
2019-05-02T12:03:53.176Z,16.83
2019-05-02T12:04:55.456Z,16.92
2019-05-02T12:05:52.547Z,16.99
2019-05-02T12:07:01.012Z,16.98
2019-05-02T12:07:53.129Z,17.10
2019-05-02T12:08:52.661Z,17.13
2019-05-02T12:09:57.092Z,17.29
2019-05-02T12:10:53.115Z,17.29
2019-05-02T12:11:56.413Z,17.41
2019-05-02T12:12:52.696Z,17.44
2019-05-02T12:13:56.791Z,17.44
2019-05-02T12:14:53.053Z,17.46
2019-05-02T12:15:52.126Z,17.46
2019-05-02T12:16:52.722Z,17.53
2019-05-02T12:17:52.029Z,17.63
2019-05-02T12:18:53.829Z,17.69
2019-05-02T12:19:53.001Z,17.69
2019-05-02T12:20:52.249Z,17.70
2019-05-02T12:21:52.877Z,17.57
2019-05-02T12:22:52.812Z,17.59
2019-05-02T12:23:52.636Z,17.51
2019-05-02T12:24:52.041Z,17.59
2019-05-02T12:25:52.152Z,17.54
2019-05-02T12:26:52.871Z,17.53
2019-05-02T12:27:52.680Z,17.59
2019-05-02T12:28:52.705Z,17.59
2019-05-02T12:29:57.748Z,17.64
2019-05-02T12:30:52.882Z,17.55
2019-05-02T12:31:55.005Z,17.66
2019-05-02T12:32:53.112Z,17.78
2019-05-02T12:33:51.852Z,17.82
2019-05-02T12:34:52.618Z,17.73
2019-05-02T12:35:52.467Z,17.78
2019-05-02T12:36:52.422Z,17.85
2019-05-02T12:37:54.935Z,17.99
2019-05-02T12:38:52.779Z,18.03
2019-05-02T12:39:51.850Z,18.10
2019-05-02T12:40:52.099Z,18.24
2019-05-02T12:41:53.700Z,18.25
2019-05-02T12:42:52.573Z,18.19
2019-05-02T12:43:52.414Z,18.19
2019-05-02T12:44:53.267Z,18.19
2019-05-02T12:45:52.838Z,18.29
2019-05-02T12:46:51.938Z,18.37
2019-05-02T12:47:52.325Z,18.55
2019-05-02T12:48:52.163Z,18.55
2019-05-02T12:49:52.046Z,18.55
2019-05-02T12:50:52.773Z,18.61
2019-05-02T12:51:52.479Z,18.49
2019-05-02T12:52:52.140Z,18.49
2019-05-02T12:53:52.816Z,18.52
2019-05-02T12:54:52.504Z,18.49
2019-05-02T12:55:52.685Z,18.44
2019-05-02T12:56:52.799Z,18.46
2019-05-02T12:57:52.330Z,18.40
2019-05-02T12:58:53.026Z,18.31
2019-05-02T12:59:52.502Z,18.37
2019-05-02T13:00:53.116Z,18.34
2019-05-02T13:01:51.899Z,18.40
2019-05-02T13:02:52.552Z,18.34
2019-05-02T13:03:51.862Z,18.34
2019-05-02T13:04:52.721Z,18.40
2019-05-02T13:05:52.094Z,18.39
2019-05-02T13:06:53.138Z,18.36